South Carolina Logo

North Myrtle Beach, SC Single Family Real Estate Listings

434 Total Real Estate Listings * Click on table heading to sort
Date Posted Property Type Style Address Price Living Area Lot Size Price/Sq Ft.
2017-06-07 Single Family Traditional 704 East Coast Lane North Myrtle Beach, SC 29582 $559,900 2,800 sq. ft. $200
2017-06-07 Single Family Traditional 2323 Tidewatch Way North Myrtle Beach, SC 29582 $349,900 1,900 sq. ft. $184
2017-06-07 Single Family Low Country 1603 Ocean Blvd North Myrtle Beach, SC 29582 $899,900 2,900 sq. ft. 15,246 sq. ft. $310
2017-06-06 Single Family Traditional 205 10th Ave North Myrtle Beach, SC 29582 $460,000 3,100 sq. ft. $148
2017-06-05 Single Family Double Wide 906 Baron Lane North Myrtle Beach, SC 29582 $64,900 1,000 sq. ft. $65
2017-06-05 Single Family Ranch 1802 Ocean Blvd North Myrtle Beach, SC 29582 $524,999 4,000 sq. ft. $131
2017-06-05 Single Family Traditional 1500 Surf Pointe Drive North Myrtle Beach, SC 29582 $479,900 2,400 sq. ft. $200
2017-06-05 Single Family Raised Beach 670 2nd Ave. #20 North Myrtle Beach, SC 29582 $299,000 1,700 sq. ft. $176
2017-06-04 Single Family Patio Home 503 41st Ave South North Myrtle Beach, SC 29582 $259,900 1,600 sq. ft. $162
2017-06-03 Single Family Patio Home 1911 Hillside Dr. S North Myrtle Beach, SC 29582 $196,999 1,100 sq. ft. $179
2017-06-03 Single Family Raised Beach 706 Ashland Ave North Myrtle Beach, SC 29582 $309,000 2,200 sq. ft. $140
2017-06-03 Single Family Traditional 1000 Summer Place North Myrtle Beach, SC 29582 $321,900 1,800 sq. ft. $179
2017-06-02 Single Family Traditional 829 9th Ave S North Myrtle Beach, SC 29582 $314,900 2,400 sq. ft. $131
2017-06-02 Single Family Ranch 94 Cedar Avenue North Myrtle Beach, SC 29582 $225,900 1,000 sq. ft. $226
2017-06-02 Single Family Ranch 4516 Surf Street North Myrtle Beach, SC 29582 $249,999 1,200 sq. ft. $208
2017-06-02 Single Family Single Wide 2402 Bryan Street North Myrtle Beach, SC 29582 $78,500 1,200 sq. ft. 5,663 sq. ft. $65
2017-06-01 Single Family Raised Beach 2205 Nixon Street North Myrtle Beach, SC 29582 $428,000 1,600 sq. ft. $268
2017-06-01 Single Family Traditional 2004 Hillside Drive North Myrtle Beach, SC 29582 $265,000 2,300 sq. ft. $115
2017-06-01 Single Family Raised Beach 1006 Clubhouse Drive North Myrtle Beach, SC 29582 $475,000 2,900 sq. ft. $164
2017-06-01 Single Family Raised Beach 908 Leah Jayne Lane North Myrtle Beach, SC 29582 $275,000 1,700 sq. ft. $162
2017-05-31 Single Family Ranch 1304 Golfview Dr North Myrtle Beach, SC 29582 $349,900 1,800 sq. ft. $194
2017-05-31 Single Family Ranch 3510 Club Course Dr North Myrtle Beach, SC 29582 $219,900 1,200 sq. ft. $183
2017-05-31 Single Family Traditional 829 9th Ave S, #2 North Myrtle Beach, SC 29582 $249,000 1,600 sq. ft. $156
2017-05-31 Single Family Ranch 1309 Poole St North Myrtle Beach, SC 29582 $299,000 1,800 sq. ft. $166
2017-05-30 Single Family Traditional 507 C 2nd Ave North Myrtle Beach, SC 29582 $237,900 1,500 sq. ft. $159
2017-05-30 Single Family Mediterranean 701 Hillside Dr North Myrtle Beach, SC 29582 $1,199,000 4,500 sq. ft. 10,890 sq. ft. $266
2017-05-30 Single Family Raised Beach 5907 Channel St North Myrtle Beach, SC 29582 $479,900 1,800 sq. ft. $267
2017-05-29 Single Family Ranch 4974 South Island Drive North Myrtle Beach, SC 29582 $259,900 1,900 sq. ft. $137
2017-05-29 Single Family 205 33rd Avenue North Myrtle Beach, SC 29582 $399,000 2,300 sq. ft. 4,792 sq. ft. $173
2017-05-29 Single Family Raised Beach 3205 Ocean Boulevard North Myrtle Beach, SC 29582 $499,000 1,500 sq. ft. 3,920 sq. ft. $333
2017-05-27 Single Family Raised Beach 332 53rd North Myrtle Beach, SC 29582 $375,000 2,200 sq. ft. $170
2017-05-26 Single Family Ranch 1405 Hillside Drive North Myrtle Beach, SC 29582 $199,900 1,300 sq. ft. $154
2017-05-26 Single Family Traditional 1209 Ocean Blvd North Myrtle Beach, SC 29582 $2,100,000 2,300 sq. ft. 36,590 sq. ft. $913
2017-05-25 Single Family Low Country 500 Sea Island Way North Myrtle Beach, SC 29582 $429,000 2,500 sq. ft. $172
2017-05-25 Single Family Raised Beach 307 25th Avenue North North Myrtle Beach, SC 29582 $433,900 1,600 sq. ft. $271
2017-05-25 Single Family Traditional 4830 Bucks Bluff Drive North Myrtle Beach, SC 29582 $674,900 3,500 sq. ft. $193
2017-05-24 Single Family Low Country 1602 27th Avenue North North Myrtle Beach, SC 29582 $349,900 2,600 sq. ft. 12,197 sq. ft. $135
2017-05-24 Single Family Raised Beach 4006 Lake Dr North Myrtle Beach, SC 29582 $604,900 4,100 sq. ft. 4,792 sq. ft. $148
2017-05-23 Single Family Contemporary 2313 Bent Bill Circle North Myrtle Beach, SC 29582 $779,500 4,700 sq. ft. 30,492 sq. ft. $166
2017-05-23 Single Family Raised Beach 318 48th Ave North Myrtle Beach, SC 29582 $360,000 1,300 sq. ft. $277
2017-05-23 Single Family 5908 Ocean Blvd North Myrtle Beach, SC 29582 $895,000 2,800 sq. ft. $320
2017-05-23 Single Family 1514 Hillside Drive S North Myrtle Beach, SC 29582 $164,900 1,100 sq. ft. $150
2017-05-22 Single Family 1420 Ocean Blvd North Myrtle Beach, SC 29582 $490,000 2,400 sq. ft. $204
2017-05-22 Single Family Raised Beach 4702 Ocean Blvd North Myrtle Beach, SC 29582 $1,500,000 5,800 sq. ft. $259
2017-05-22 Single Family Patio Home 717 41st Ave South North Myrtle Beach, SC 29582 $219,100 1,700 sq. ft. $129
2017-05-22 Single Family Traditional 925 Tiffany Lane North Myrtle Beach, SC 29582 $239,000 1,900 sq. ft. $126
2017-05-22 Single Family Patio Home 5009 Sea Coral Way North Myrtle Beach, SC 29582 $229,900 1,200 sq. ft. $192
2017-05-19 Single Family Patio Home 922 G Perrin Drive North Myrtle Beach, SC 29582 $214,900 1,500 sq. ft. $143
2017-05-19 Single Family Ranch 5500 Leatherleaf Drive North Myrtle Beach, SC 29582 $444,900 2,600 sq. ft. $171
2017-05-19 Single Family Traditional 4823 Cantor Court North Myrtle Beach, SC 29582 $459,900 1,800 sq. ft. $256
2017-05-19 Single Family Ranch 902 Tilghman Forest Dr North Myrtle Beach, SC 29582 $259,500 1,400 sq. ft. $185
2017-05-18 Single Family Low Country 1607 25th Avenue North North Myrtle Beach, SC 29582 $300,000 2,000 sq. ft. 10,890 sq. ft. $150
2017-05-18 Single Family Low Country 2314 Bentbill Circle North Myrtle Beach, SC 29582 $565,000 2,600 sq. ft. 30,492 sq. ft. $217
2017-05-18 Single Family Ranch 1314 Waterway Drive North Myrtle Beach, SC 29582 $327,000 1,900 sq. ft. 21,780 sq. ft. $172
2017-05-18 Single Family Patio Home 1702 Crosswinds Ave North Myrtle Beach, SC 29582 $319,900 1,900 sq. ft. $168
2017-05-18 Single Family Ranch 1411 Summerwind Court North Myrtle Beach, SC 29582 $507,000 2,800 sq. ft. $181
2017-05-18 Single Family Traditional 1351 Waterway Drive North Myrtle Beach, SC 29582 $729,999 3,100 sq. ft. $235
2017-05-18 Single Family Traditional 4513 Surf St North Myrtle Beach, SC 29582 $249,900 1,600 sq. ft. $156
2017-05-18 Single Family 1413-2 Cane St North Myrtle Beach, SC 29582 $229,900 2,100 sq. ft. $109
2017-05-17 Single Family Mediterranean 2114 Mirabel Court North Myrtle Beach, SC 29582 $386,500 2,600 sq. ft. $149
2017-05-17 Single Family Contemporary 1704-B Edge Drive North Myrtle Beach, SC 29582 $225,000 1,500 sq. ft. $150
2017-05-16 Single Family Ranch 1620 27th Avenue North North Myrtle Beach, SC 29582 $237,000 1,800 sq. ft. 12,197 sq. ft. $132
2017-05-15 Single Family Single Wide 922 Baron Lane North Myrtle Beach, SC 29582 $56,900 1,000 sq. ft. $57
2017-05-15 Single Family Raised Beach 2204 Havens Drive North Myrtle Beach, SC 29582 $949,000 5,000 sq. ft. $190
2017-05-15 Single Family Ranch 709 Holloway Cir. N North Myrtle Beach, SC 29582 $359,000 2,600 sq. ft. $138
2017-05-13 Single Family Patio Home 2206 D Perrin Dr North Myrtle Beach, SC 29582 $259,000 1,800 sq. ft. $144
2017-05-13 Single Family Traditional 1229 Pine Valley Rd North Myrtle Beach, SC 29582 $259,900 2,200 sq. ft. 12,197 sq. ft. $118
2017-05-13 Single Family Contemporary 603 11th Avenue North Myrtle Beach, SC 29582 $799,998 4,400 sq. ft. 37,897 sq. ft. $182
2017-05-12 Single Family Raised Beach 4706 Surf St North Myrtle Beach, SC 29582 $419,000 1,400 sq. ft. 7,841 sq. ft. $299
2017-05-11 Single Family Raised Beach 219 25th Ave North Myrtle Beach, SC 29582 $319,900 1,600 sq. ft. $200
2017-05-10 Single Family Traditional 1301 Clipper Rd North Myrtle Beach, SC 29582 $328,950 2,900 sq. ft. $113
2017-05-10 Single Family Raised Beach 301 58th Ave. N North Myrtle Beach, SC 29582 $429,000 2,700 sq. ft. $159
2017-05-10 Single Family Raised Beach 209 33rd Avenue North Myrtle Beach, SC 29582 $329,900 1,000 sq. ft. $330
2017-05-10 Single Family Raised Beach 670 2nd Ave North Myrtle Beach, SC 29582 $295,000 1,600 sq. ft. 3,485 sq. ft. $184
2017-05-09 Single Family Patio Home 606 B 10th Ave North Myrtle Beach, SC 29582 $218,999 1,400 sq. ft. $156
2017-05-09 Single Family Raised Beach 2303 Stephens Street North Myrtle Beach, SC 29582 $309,000 1,700 sq. ft. 10,019 sq. ft. $182
2017-05-08 Single Family Traditional 4825 Bucks Bluff Drive North Myrtle Beach, SC 29582 $540,750 3,400 sq. ft. 14,810 sq. ft. $159
2017-05-07 Single Family Low Country 1401 Hillside Drive North Myrtle Beach, SC 29582 $825,000 4,100 sq. ft. 15,246 sq. ft. $201
2017-05-05 Single Family Patio Home 829 9th Ave S North Myrtle Beach, SC 29582 $229,900 1,500 sq. ft. $153
2017-05-05 Single Family 215 28th Avenue North Myrtle Beach, SC 29582 $334,900 1,900 sq. ft. $176
2017-05-05 Single Family Contemporary 1827 Spinnaker Drive North Myrtle Beach, SC 29582 $265,200 2,200 sq. ft. 9,148 sq. ft. $121
2017-05-04 Single Family Mediterranean 2121 Via Palma North Myrtle Beach, SC 29582 $429,999 2,900 sq. ft. $148
2017-05-03 Single Family Raised Beach 513 54th Ave N North Myrtle Beach, SC 29582 $789,950 3,400 sq. ft. 6,534 sq. ft. $232
2017-05-03 Single Family Patio Home 1011 A Perrin Drive North Myrtle Beach, SC 29582 $225,000 1,300 sq. ft. $173
2017-05-02 Single Family Traditional 1240 Pine Valley North Myrtle Beach, SC 29582 $399,500 2,400 sq. ft. 29,185 sq. ft. $166
2017-05-02 Single Family Patio Home 2708 Hilton Drive North Myrtle Beach, SC 29582 $299,000 1,900 sq. ft. $157
2017-05-02 Single Family Ranch 511 6th Ave S North Myrtle Beach, SC 29582 $299,900 1,700 sq. ft. $176
2017-05-01 Single Family Contemporary 1432 Fox Hollow Way North Myrtle Beach, SC 29582 $283,000 2,000 sq. ft. $142
2017-05-01 Single Family Ranch 4905 Weatherwood Dr North Myrtle Beach, SC 29582 $259,900 1,500 sq. ft. $173
2017-04-30 Single Family Ranch 908 Bronwyn Circle North Myrtle Beach, SC 29582 $295,000 1,800 sq. ft. $164
2017-04-29 Single Family Traditional 1121 Captain Hook's Way North Myrtle Beach, SC 29582 $469,900 3,200 sq. ft. 6,970 sq. ft. $147
2017-04-29 Single Family Low Country 1104 Doubloon Drive North Myrtle Beach, SC 29582 $449,900 3,000 sq. ft. 8,276 sq. ft. $150
2017-04-29 Single Family Ranch 1113 Captain Hook's Way North Myrtle Beach, SC 29582 $429,900 2,100 sq. ft. 6,970 sq. ft. $205
2017-04-28 Single Family Raised Beach 334 51st Ave North Myrtle Beach, SC 29582 $395,000 1,900 sq. ft. 6,534 sq. ft. $208
2017-04-28 Single Family Raised Beach 804 Perrin Drive North Myrtle Beach, SC 29582 $325,000 1,500 sq. ft. $217
2017-04-28 Single Family Contemporary 1634 Harbor Drive North Myrtle Beach, SC 29582 $225,000 1,700 sq. ft. $132
2017-04-28 Single Family Ranch 1004 Oak Marsh Lane North Myrtle Beach, SC 29582 $258,900 1,600 sq. ft. $162
2017-04-28 Single Family Ranch 1000 Oak Marsh Lane North Myrtle Beach, SC 29582 $256,900 1,600 sq. ft. $161
2017-04-27 Single Family Traditional 2381 Tidewatch Way North Myrtle Beach, SC 29582 $397,900 2,300 sq. ft. $173
2017-04-27 Single Family Traditional 2367 Tidewatch Way North Myrtle Beach, SC 29582 $374,900 2,000 sq. ft. $187
2017-04-27 Single Family Traditional 2371 Tidewatch Way North Myrtle Beach, SC 29582 $394,900 2,500 sq. ft. $158
2017-04-26 Single Family Patio Home 2209 Sea Dune Drive North Myrtle Beach, SC 29582 $219,900 1,200 sq. ft. $183
2017-04-26 Single Family Ranch 1209 Golfview Drive North Myrtle Beach, SC 29582 $385,000 2,600 sq. ft. $148
2017-04-26 Single Family Raised Beach 3607-1 Poinsett Street North Myrtle Beach, SC 29582 $220,000 1,300 sq. ft. $169
2017-04-25 Single Family Patio Home 2201 Oak Creek Court North Myrtle Beach, SC 29582 $299,900 1,600 sq. ft. $187
2017-04-25 Single Family Patio Home 1016 Charles St North Myrtle Beach, SC 29582 $184,777 1,100 sq. ft. $168
2017-04-25 Single Family Patio Home 2205 Oak Creek Court North Myrtle Beach, SC 29582 $309,900 1,800 sq. ft. $172
2017-04-25 Single Family 514 6th Ave North Myrtle Beach, SC 29582 $297,500 1,700 sq. ft. $175
2017-04-25 Single Family Raised Beach 1611 Cottage Cove Circle North Myrtle Beach, SC 29582 $299,000 1,800 sq. ft. $166
2017-04-25 Single Family Patio Home 600 25th Ave North Myrtle Beach, SC 29582 $184,250 1,400 sq. ft. $132
2017-04-24 Single Family Patio Home 1000 Charles St North Myrtle Beach, SC 29582 $175,900 1,500 sq. ft. $117
2017-04-23 Single Family Ranch 306 23rd Ave North Myrtle Beach, SC 29582 $280,000 1,300 sq. ft. $215
2017-04-23 Single Family Ranch 1101 Sulley Ave North Myrtle Beach, SC 29582 $264,900 1,800 sq. ft. $147
2017-04-22 Single Family Ranch 3801 Seedling Court North Myrtle Beach, SC 29582 $300,000 2,000 sq. ft. $150
2017-04-21 Single Family Patio Home 5318 Sea Coral Way North Myrtle Beach, SC 29582 $319,900 1,800 sq. ft. $178
2017-04-20 Single Family Ranch 612 36th Ave North Myrtle Beach, SC 29582 $239,999 1,900 sq. ft. $126
2017-04-20 Single Family Traditional 1703 26th Ave North Myrtle Beach, SC 29582 $335,000 2,500 sq. ft. $134
2017-04-20 Single Family Raised Beach 502 55th Ave N North Myrtle Beach, SC 29582 $959,900 3,200 sq. ft. $300
2017-04-20 Single Family Double Wide 2422 Douglas St North Myrtle Beach, SC 29582 $159,900 2,000 sq. ft. $80
2017-04-20 Single Family Traditional 4405 Wickham Circle North Myrtle Beach, SC 29582 $379,900 2,800 sq. ft. $136
2017-04-19 Single Family Raised Beach 503 22nd Avenue North North Myrtle Beach, SC 29582 $414,990 1,800 sq. ft. 4,356 sq. ft. $231
2017-04-19 Single Family Raised Beach 5938 Channel Street North Myrtle Beach, SC 29582 $2,099,000 3,900 sq. ft. $538
2017-04-19 Single Family Patio Home 1608 Holly North Myrtle Beach, SC 29582 $161,000 1,400 sq. ft. $115
2017-04-19 Single Family Ranch 1104 Oak Marsh Lane North Myrtle Beach, SC 29582 $304,900 1,700 sq. ft. $179
2017-04-18 Single Family Patio Home 919 Woodmere Ct North Myrtle Beach, SC 29582 $232,900 1,700 sq. ft. $137
2017-04-18 Single Family Traditional 484 Banyan Place North Myrtle Beach, SC 29582 $699,900 2,700 sq. ft. $259
2017-04-18 Single Family Raised Beach 208 27 Ave N North Myrtle Beach, SC 29582 $549,900 3,100 sq. ft. $177
2017-04-17 Single Family Raised Beach 704 Ashland Ave North Myrtle Beach, SC 29582 $309,500 2,500 sq. ft. 3,049 sq. ft. $124
2017-04-17 Single Family Traditional 1101 24th Ave North Myrtle Beach, SC 29582 $214,900 1,400 sq. ft. $154
2017-04-15 Single Family 4401 Ocean Bvld North Myrtle Beach, SC 29582 $1,195,000 6,100 sq. ft. $196
2017-04-15 Single Family 5006 Ocean Blvd North Myrtle Beach, SC 29582 $1,095,000 3,000 sq. ft. $365
2017-04-14 Single Family Ranch 1207 Hillside Drive North Myrtle Beach, SC 29582 $250,000 1,500 sq. ft. 11,761 sq. ft. $167
2017-04-14 Single Family Ranch 824 Arbor Ln North Myrtle Beach, SC 29582 $289,900 1,700 sq. ft. $171
2017-04-13 Single Family Raised Beach 820 9th Ave S North Myrtle Beach, SC 29582 $239,000 1,600 sq. ft. $149
2017-04-12 Single Family Ranch 5711 Coquina Pointe Drive North Myrtle Beach, SC 29582 $329,900 2,400 sq. ft. $137
2017-04-12 Single Family Raised Beach 1605 Harbor Drive North Myrtle Beach, SC 29582 $278,000 1,700 sq. ft. $164
2017-04-12 Single Family Traditional 2354 Tidewatch Way North Myrtle Beach, SC 29582 $359,900 2,300 sq. ft. $156
2017-04-11 Single Family Traditional 909 Morrall Dr North Myrtle Beach, SC 29582 $569,900 4,000 sq. ft. $142
2017-04-11 Single Family Ranch 1106 Tanglewood Drive North Myrtle Beach, SC 29582 $135,000 1,400 sq. ft. $96
2017-04-10 Single Family 200 7th Avenue North Myrtle Beach, SC 29582 $995,000 1,900 sq. ft. $524
2017-04-10 Single Family Mediterranean 5403 Via Verde Dr North Myrtle Beach, SC 29582 $439,900 2,600 sq. ft. $169
2017-04-09 Single Family Ranch 1400 Osprey Pointe Lane North Myrtle Beach, SC 29582 $444,900 2,400 sq. ft. $185
2017-04-08 Single Family Traditional 452 Banyan Place North Myrtle Beach, SC 29582 $657,900 2,300 sq. ft. $286
2017-04-08 Single Family 5400 Little River Neck Road North Myrtle Beach, SC 29582 $135,000 1,200 sq. ft. $112
2017-04-07 Single Family Traditional 4818 Bucks Bluff Drive North Myrtle Beach, SC 29582 $512,500 3,000 sq. ft. $171
2017-04-07 Single Family Raised Beach 2412 Pointe Marsh Lane North Myrtle Beach, SC 29582 $369,999 2,500 sq. ft. $148
2017-04-06 Single Family Raised Beach 3602 Ocean Blvd North Myrtle Beach, SC 29582 $199,999 1,000 sq. ft. $200
2017-04-06 Single Family Raised Beach 3411 Poinsett North Myrtle Beach, SC 29582 $365,000 2,400 sq. ft. $152
2017-04-06 Single Family Traditional 2377 Tidewatch Way North Myrtle Beach, SC 29582 $369,900 2,000 sq. ft. $185
2017-04-06 Single Family 5400 Little River Neck Road North Myrtle Beach, SC 29582 $75,000 1,000 sq. ft. $75
2017-04-06 Single Family Traditional 927 Leah Jayne Lane North Myrtle Beach, SC 29582 $266,000 1,600 sq. ft. $166
2017-04-05 Single Family 2208 Ocean Blvd North Myrtle Beach, SC 29582 $899,900 4,200 sq. ft. $214
2017-04-05 Single Family Ranch 810 St. Charles Rd North Myrtle Beach, SC 29582 $432,000 2,400 sq. ft. $180
2017-04-05 Single Family Traditional 1500 Seabrook Plantation Way North Myrtle Beach, SC 29582 $495,000 2,200 sq. ft. $225
2017-04-05 Single Family Contemporary 4608 Lewis Cirlce North Myrtle Beach, SC 29582 $349,990 2,000 sq. ft. 10,890 sq. ft. $175
2017-04-05 Single Family Ranch 1720 Cenith Drive North Myrtle Beach, SC 29582 $274,900 2,100 sq. ft. 22,216 sq. ft. $131
2017-04-04 Single Family Traditional 1411 Landfall Drive North Myrtle Beach, SC 29582 $329,900 2,000 sq. ft. $165
2017-04-04 Single Family Traditional 4836 Cantor Court North Myrtle Beach, SC 29582 $435,000 1,800 sq. ft. $242
2017-04-04 Single Family 1519 Ocean Blvd North Myrtle Beach, SC 29582 $1,149,000 3,200 sq. ft. $359
2017-04-03 Single Family Raised Beach 4800 South Island Court North Myrtle Beach, SC 29582 $589,900 3,700 sq. ft. $159
2017-04-03 Single Family Ranch 5708 Coquina Pointe Drive North Myrtle Beach, SC 29582 $259,900 1,800 sq. ft. $144
2017-04-01 Single Family 5400 Little River Neck Road North Myrtle Beach, SC 29582 $90,000 1,100 sq. ft. $82
2017-04-01 Single Family 2511 Ridge Street North Myrtle Beach, SC 29582 $129,900 1,000 sq. ft. $130
2017-04-01 Single Family Traditional 1303 Havens Drive North Myrtle Beach, SC 29582 $359,900 2,000 sq. ft. 8,276 sq. ft. $180
2017-03-31 Single Family Raised Beach 702 Seashell Lane North Myrtle Beach, SC 29582 $347,000 3,100 sq. ft. $112
2017-03-31 Single Family Raised Beach 604 Ocean Blvd North Myrtle Beach, SC 29582 $1,645,000 3,600 sq. ft. 14,810 sq. ft. $457
2017-03-30 Single Family 4611 Grovecrest Cir North Myrtle Beach, SC 29582 $407,900 3,000 sq. ft. $136
2017-03-29 Single Family Raised Beach 5206 Ocean Blvd North Myrtle Beach, SC 29582 $924,900 1,400 sq. ft. $661
2017-03-29 Single Family Raised Beach 4107 Ocean Blvd North Myrtle Beach, SC 29582 $850,000 2,300 sq. ft. $370
2017-03-28 Single Family Traditional 1418 Ocean Blvd North Myrtle Beach, SC 29582 $599,900 1,800 sq. ft. 5,663 sq. ft. $333
2017-03-28 Single Family 1422 Holly Drive North Myrtle Beach, SC 29582 $265,000 1,600 sq. ft. $166
2017-03-28 Single Family 829 9th Avenue South North Myrtle Beach, SC 29582 $234,900 1,400 sq. ft. $168
2017-03-28 Single Family Double Wide 1491 Harrelson Ave North Myrtle Beach, SC 29582 $79,900 1,200 sq. ft. $67
2017-03-27 Single Family 220 1st Avenue South North Myrtle Beach, SC 29582 $995,000 1,000 sq. ft. $995
2017-03-27 Single Family Traditional 4904 Salt Creek Court North Myrtle Beach, SC 29582 $1,299,900 3,800 sq. ft. $342
2017-03-27 Single Family Traditional 4906 Salt Creek Court North Myrtle Beach, SC 29582 $1,149,900 2,800 sq. ft. $411
2017-03-26 Single Family Ranch 916 Bronwyn Circle North Myrtle Beach, SC 29582 $272,529 1,700 sq. ft. $160
2017-03-24 Single Family Raised Beach 2805 Ships Wheel Dr North Myrtle Beach, SC 29582 $599,900 3,400 sq. ft. $176
2017-03-24 Single Family Ranch 917 Bronwyn Circle North Myrtle Beach, SC 29582 $334,900 3,000 sq. ft. $112
2017-03-22 Single Family Ranch 901 Bronwyn Circle North Myrtle Beach, SC 29582 $279,900 1,800 sq. ft. $156
2017-03-22 Single Family Ranch 909 Bronwyn Circle North Myrtle Beach, SC 29582 $314,900 2,200 sq. ft. $143
2017-03-22 Single Family Ranch 825 Bronwyn Circle North Myrtle Beach, SC 29582 $286,900 2,100 sq. ft. $137
2017-03-21 Single Family Raised Beach 2414 Pointe Marsh Ln North Myrtle Beach, SC 29582 $389,900 2,500 sq. ft. $156
2017-03-21 Single Family 202 27th Avenue North Myrtle Beach, SC 29582 $499,000 1,900 sq. ft. 4,792 sq. ft. $263
2017-03-21 Single Family Ranch 5025 Bucks Bluff Drive North Myrtle Beach, SC 29582 $389,900 3,000 sq. ft. $130
2017-03-20 Single Family Ranch 1304 East Island Drive North Myrtle Beach, SC 29582 $476,900 3,300 sq. ft. $145
2017-03-20 Single Family Patio Home 2209 Oak Creek Court North Myrtle Beach, SC 29582 $299,900 1,800 sq. ft. $167
2017-03-20 Single Family Patio Home 2200 Sea Dune Drive North Myrtle Beach, SC 29582 $239,900 1,200 sq. ft. $200
2017-03-18 Single Family Ranch 801 Bronwyn Circle North Myrtle Beach, SC 29582 $288,105 1,800 sq. ft. $160
2017-03-17 Single Family Raised Beach 206 32nd Ave. N North Myrtle Beach, SC 29582 $274,900 1,400 sq. ft. $196
2017-03-17 Single Family Traditional 2363 Tidewatch Way North Myrtle Beach, SC 29582 $375,000 2,000 sq. ft. $188
2017-03-16 Single Family Traditional 2306 Ocean Boulevard North Myrtle Beach, SC 29582 $465,000 3,000 sq. ft. $155
2017-03-16 Single Family Raised Beach 3909 Ocean Boulevard North Myrtle Beach, SC 29582 $559,000 3,900 sq. ft. 3,485 sq. ft. $143
2017-03-16 Single Family Ranch 1300 East Island Drive North Myrtle Beach, SC 29582 $472,590 2,800 sq. ft. $169
2017-03-16 Single Family Raised Beach 324 55th Ave North Myrtle Beach, SC 29582 $499,900 3,400 sq. ft. $147
2017-03-16 Single Family Raised Beach 5406 Nixon Street North Myrtle Beach, SC 29582 $259,900 1,700 sq. ft. $153
2017-03-16 Single Family Patio Home 709 Holly Way North Myrtle Beach, SC 29582 $165,900 1,300 sq. ft. $128
2017-03-15 Single Family Traditional 912 Heshbon Drive North Myrtle Beach, SC 29582 $384,500 2,400 sq. ft. $160
2017-03-15 Single Family Traditional 536 Olde Mill Dr North Myrtle Beach, SC 29582 $599,000 2,500 sq. ft. $240
2017-03-14 Single Family Raised Beach 300 14th Ave South North Myrtle Beach, SC 29582 $559,900 2,700 sq. ft. $207
2017-03-13 Single Family Raised Beach 808 South Ocean Blvd North Myrtle Beach, SC 29582 $289,500 1,100 sq. ft. $263
2017-03-13 Single Family 903 Ocean Blvd North Myrtle Beach, SC 29582 $899,900 4,100 sq. ft. $219
2017-03-10 Single Family 829 9th Ave S, #31 North Myrtle Beach, SC 29582 $274,900 2,100 sq. ft. 2,614 sq. ft. $131
2017-03-08 Single Family Raised Beach 1612 Holly Dr North Myrtle Beach, SC 29582 $575,000 2,600 sq. ft. 7,841 sq. ft. $221
2017-03-07 Single Family Raised Beach 301 Oak Dr North Myrtle Beach, SC 29582 $399,900 2,500 sq. ft. $160
2017-03-07 Single Family Raised Beach 1616 Waterway Drive North Myrtle Beach, SC 29582 $469,000 2,900 sq. ft. 7,841 sq. ft. $162
2017-03-05 Single Family Ranch 1102 Oak Marsh Lane North Myrtle Beach, SC 29582 $318,900 2,600 sq. ft. $123
2017-03-05 Single Family Ranch 1002 Oak Marsh Lane North Myrtle Beach, SC 29582 $252,900 1,600 sq. ft. $158
2017-03-05 Single Family Ranch 1122 Oak Marsh Lane North Myrtle Beach, SC 29582 $271,900 1,800 sq. ft. $151
2017-03-05 Single Family Ranch 1124 Oak Marsh Lane North Myrtle Beach, SC 29582 $266,900 1,700 sq. ft. $157
2017-03-05 Single Family Ranch 1128 Oak Marsh Lane North Myrtle Beach, SC 29582 $249,900 1,600 sq. ft. $156
2017-03-05 Single Family Ranch 1103 Inlet View Drive North Myrtle Beach, SC 29582 $319,900 2,700 sq. ft. $118
2017-03-05 Single Family Ranch 1105 Inlet View Drive North Myrtle Beach, SC 29582 $278,900 1,800 sq. ft. $155
2017-03-03 Single Family Raised Beach 4725 Harmony Lane North Myrtle Beach, SC 29582 $489,900 2,600 sq. ft. $188
2017-03-02 Single Family Raised Beach 205 56th Avenue North Myrtle Beach, SC 29582 $349,742 1,100 sq. ft. 7,405 sq. ft. $318
2017-03-01 Single Family Ranch 1005 Sand Dollar Ct North Myrtle Beach, SC 29582 $269,000 1,500 sq. ft. $179
2017-03-01 Single Family Traditional 849 9th Ave South North Myrtle Beach, SC 29582 $265,000 1,600 sq. ft. $166
2017-03-01 Single Family Raised Beach 307 28th Avenue North Myrtle Beach, SC 29582 $425,000 1,600 sq. ft. $266
2017-02-28 Single Family Raised Beach 204 17th Ave N North Myrtle Beach, SC 29582 $639,900 2,000 sq. ft. 14,810 sq. ft. $320
2017-02-28 Single Family Raised Beach 403 5th Ave South North Myrtle Beach, SC 29582 $346,000 1,800 sq. ft. $192
2017-02-27 Single Family Low Country 1308 East Island Drive North Myrtle Beach, SC 29582 $459,300 2,800 sq. ft. $164
2017-02-27 Single Family 813 Ocean Blvd North Myrtle Beach, SC 29582 $999,000 3,400 sq. ft. $294
2017-02-27 Single Family Patio Home 713-A 43rd Ave. S North Myrtle Beach, SC 29582 $234,900 1,600 sq. ft. $147
2017-02-26 Single Family Raised Beach 347 53rd Ave North Myrtle Beach, SC 29582 $358,000 1,600 sq. ft. $224
2017-02-26 Single Family Ranch 1401 Osprey Pointe Lane North Myrtle Beach, SC 29582 $479,900 2,300 sq. ft. $209
2017-02-26 Single Family Traditional 702 Ivy Place North Myrtle Beach, SC 29582 $929,900 4,200 sq. ft. 33,106 sq. ft. $221
2017-02-25 Single Family Raised Beach 1303 Ocean Blvd North Myrtle Beach, SC 29582 $484,900 1,700 sq. ft. 14,810 sq. ft. $285
2017-02-24 Single Family Raised Beach 4622B Seaview Street North Myrtle Beach, SC 29582 $279,900 1,600 sq. ft. $175
2017-02-24 Single Family Raised Beach 2505 Ocean Blvd North Myrtle Beach, SC 29582 $349,867 1,500 sq. ft. $233
2017-02-23 Single Family Raised Beach 1421 Holly Drive North Myrtle Beach, SC 29582 $674,000 3,600 sq. ft. $187
2017-02-22 Single Family Raised Beach 3102 Ocean Blvd North Myrtle Beach, SC 29582 $1,330,000 4,600 sq. ft. $289
2017-02-21 Single Family Patio Home 1606 Burgee Court North Myrtle Beach, SC 29582 $749,000 6,000 sq. ft. 23,958 sq. ft. $125
2017-02-20 Single Family Traditional 1416 Fox Hollow Way North Myrtle Beach, SC 29582 $309,900 2,000 sq. ft. $155
2017-02-20 Single Family Patio Home 1002 Edge Dr. #l North Myrtle Beach, SC 29582 $193,000 1,500 sq. ft. 2,614 sq. ft. $129
2017-02-17 Single Family Ranch 941 Heshbon Drive North Myrtle Beach, SC 29582 $359,000 2,200 sq. ft. $163
2017-02-15 Single Family 208 31st Ave North Myrtle Beach, SC 29582 $325,000 1,900 sq. ft. 4,792 sq. ft. $171
2017-02-15 Single Family Ranch 4744 Buck's Bluff Drive North Myrtle Beach, SC 29582 $698,900 3,600 sq. ft. $194
2017-02-14 Single Family Raised Beach 1631 Harbor Drive North Myrtle Beach, SC 29582 $309,500 2,200 sq. ft. $141
2017-02-13 Single Family 1516 Havens Drive, Unit A North Myrtle Beach, SC 29582 $399,000 3,600 sq. ft. $111
2017-02-13 Single Family Raised Beach 2308 Pointe Marsh Ln North Myrtle Beach, SC 29582 $365,000 2,400 sq. ft. $152
2017-02-13 Single Family Raised Beach 4637 Island Drive North Myrtle Beach, SC 29582 $595,000 3,600 sq. ft. $165
2017-02-13 Single Family 5400 Little River Neck Road North Myrtle Beach, SC 29582 $74,900 1,000 sq. ft. $75
2017-02-11 Single Family Raised Beach 6006 Nixon Street North Myrtle Beach, SC 29582 $479,900 2,600 sq. ft. $185
2017-02-11 Single Family 5400 Little River Neck Road North Myrtle Beach, SC 29582 $89,500 1,000 sq. ft. $90
2017-02-10 Single Family Raised Beach 428 7th Ave North Myrtle Beach, SC 29582 $415,000 2,300 sq. ft. $180
2017-02-10 Single Family Ranch 900 Bronwyn Circle North Myrtle Beach, SC 29582 $322,500 2,100 sq. ft. $154
2017-02-10 Single Family Ranch 219 27th Avenue North Myrtle Beach, SC 29582 $299,000 1,600 sq. ft. 3,920 sq. ft. $187
2017-02-09 Single Family Single Wide 1013 Foxfire Dr North Myrtle Beach, SC 29582 $55,000 1,000 sq. ft. $55
2017-02-08 Single Family Raised Beach 314 44th Avenue North Myrtle Beach, SC 29582 $599,000 2,400 sq. ft. $250
2017-02-07 Single Family Raised Beach 412 34th Avenue North Myrtle Beach, SC 29582 $575,000 3,700 sq. ft. $155
2017-02-04 Single Family Raised Beach 213 30th Avenue North Myrtle Beach, SC 29582 $275,000 1,900 sq. ft. 4,792 sq. ft. $145
2017-02-04 Single Family Raised Beach 206 9th Avenue South North Myrtle Beach, SC 29582 $529,900 3,900 sq. ft. 5,227 sq. ft. $136
2017-02-04 Single Family Raised Beach TBD1 7th Avenue South North Myrtle Beach, SC 29582 $372,400 2,300 sq. ft. $162
2017-02-04 Single Family Raised Beach TBD2 7th Avenue South North Myrtle Beach, SC 29582 $492,400 3,900 sq. ft. $126
2017-02-04 Single Family Raised Beach 438 7th Avenue South North Myrtle Beach, SC 29582 $409,279 2,300 sq. ft. $178
2017-02-04 Single Family Raised Beach 909 Ocean Pines Court North Myrtle Beach, SC 29582 $259,189 2,100 sq. ft. $123
2017-02-04 Single Family Raised Beach 911 Ocean Pines Court North Myrtle Beach, SC 29582 $268,859 2,100 sq. ft. $128
2017-02-04 Single Family Ranch 1132 Bronwyn Circle North Myrtle Beach, SC 29582 $298,900 2,100 sq. ft. $142
2017-02-04 Single Family Ranch 817 Bronwyn Circle North Myrtle Beach, SC 29582 $264,900 1,700 sq. ft. $156
2017-02-03 Single Family Raised Beach 1615 Cottage Cove Cir North Myrtle Beach, SC 29582 $293,000 1,900 sq. ft. $154
2017-02-03 Single Family Traditional 4804 Cantor Court North Myrtle Beach, SC 29582 $437,900 1,800 sq. ft. $243
2017-02-03 Single Family Raised Beach 5108 Ocean Blvd North Myrtle Beach, SC 29582 $1,199,000 2,700 sq. ft. $444
2017-02-02 Single Family Traditional 806 Tillson Rd North Myrtle Beach, SC 29582 $824,900 5,400 sq. ft. 27,007 sq. ft. $153
2017-02-02 Single Family Patio Home 717 41st Ave S North Myrtle Beach, SC 29582 $242,000 1,800 sq. ft. $134
2017-02-01 Single Family 5400 Little River Neck Road North Myrtle Beach, SC 29582 $65,000 1,000 sq. ft. $65
2017-02-01 Single Family Mediterranean 5506 Via Verde Drive North Myrtle Beach, SC 29582 $350,000 2,600 sq. ft. $135
2017-02-01 Single Family Raised Beach 407 26th N Avenue North Myrtle Beach, SC 29582 $373,999 1,600 sq. ft. $234
2017-02-01 Single Family Double Wide 4757 Victoria Falls Ln North Myrtle Beach, SC 29582 $165,000 2,300 sq. ft. 87,120 sq. ft. $72
2017-01-30 Single Family Ranch 1107 Inlet View Drive North Myrtle Beach, SC 29582 $288,900 1,900 sq. ft. $152
2017-01-30 Single Family Ranch 1107 Sulley Avenue North Myrtle Beach, SC 29582 $244,000 1,500 sq. ft. $163
2017-01-27 Single Family Contemporary 502 14th Avenue North Myrtle Beach, SC 29582 $399,900 1,600 sq. ft. $250
2017-01-27 Single Family Raised Beach 406 34th Ave N North Myrtle Beach, SC 29582 $275,000 1,000 sq. ft. $275
2017-01-27 Single Family Contemporary 1006 Mt Vernon Drive North Myrtle Beach, SC 29582 $238,900 1,900 sq. ft. $126
2017-01-26 Single Family Raised Beach 208-5 55th Ave North Myrtle Beach, SC 29582 $289,900 1,500 sq. ft. $193
2017-01-26 Single Family Traditional 929 Morrall Dr North Myrtle Beach, SC 29582 $374,999 2,500 sq. ft. $150
2017-01-25 Single Family 3800 Ocean Blvd North Myrtle Beach, SC 29582 $1,088,000 4,100 sq. ft. $265
2017-01-25 Single Family Raised Beach 324 53rd Avenue North North Myrtle Beach, SC 29582 $479,000 2,000 sq. ft. $240
2017-01-24 Single Family Mediterranean 5404 Via Verde Drive North Myrtle Beach, SC 29582 $413,280 2,800 sq. ft. $148
2017-01-23 Single Family Ranch 5124 Weatherwood Drive North Myrtle Beach, SC 29582 $239,900 1,500 sq. ft. 8,712 sq. ft. $160
2017-01-20 Single Family Raised Beach 1918 Ocean Blvd North Myrtle Beach, SC 29582 $995,000 1,800 sq. ft. $553
2017-01-20 Single Family Traditional 700 Lorenzo Drive North Myrtle Beach, SC 29582 $272,900 2,300 sq. ft. $119
2017-01-20 Single Family Traditional 712 Lorenzo Drive North Myrtle Beach, SC 29582 $255,900 2,100 sq. ft. $122
2017-01-20 Single Family Traditional 708 Lorenzo Drive North Myrtle Beach, SC 29582 $278,850 2,200 sq. ft. $127
2017-01-20 Single Family Traditional 704 Lorenzo Drive North Myrtle Beach, SC 29582 $269,950 2,200 sq. ft. $123
2017-01-20 Single Family Traditional 508 Lorenzo Drive North Myrtle Beach, SC 29582 $291,990 2,200 sq. ft. $133
2017-01-20 Single Family Raised Beach 431 7th Avenue South North Myrtle Beach, SC 29582 $406,082 2,300 sq. ft. $177
2017-01-20 Single Family Raised Beach 429 7th Avenue South North Myrtle Beach, SC 29582 $559,669 3,900 sq. ft. $144
2017-01-18 Single Family Traditional 602 Wedgewood Court North Myrtle Beach, SC 29582 $259,900 1,700 sq. ft. $153
2017-01-18 Single Family Patio Home 704 43rd Ave S North Myrtle Beach, SC 29582 $209,000 1,400 sq. ft. $149
2017-01-16 Single Family Raised Beach 820 9th Avenue North Myrtle Beach, SC 29582 $224,900 1,000 sq. ft. $225
2017-01-15 Single Family Patio Home 2707-8 Hillside Drive North Myrtle Beach, SC 29582 $249,900 1,700 sq. ft. $147
2017-01-14 Single Family Traditional 4962 Island Dr North Myrtle Beach, SC 29582 $251,850 1,800 sq. ft. $140
2017-01-13 Single Family Raised Beach 336 58th Avenue North Myrtle Beach, SC 29582 $349,000 2,600 sq. ft. $134
2017-01-13 Single Family 1308 Shore Drive North Myrtle Beach, SC 29582 $114,900 1,200 sq. ft. $96
2017-01-13 Single Family Traditional 500 Olde Mill Dr North Myrtle Beach, SC 29582 $419,900 1,900 sq. ft. $221
2017-01-12 Single Family Raised Beach 209 20th Ave. N North Myrtle Beach, SC 29582 $259,900 1,200 sq. ft. $217
2017-01-12 Single Family Traditional 1007 Sea Horse Court North Myrtle Beach, SC 29582 $279,900 1,700 sq. ft. $165
2017-01-12 Single Family Raised Beach 332 45th Ave N North Myrtle Beach, SC 29582 $284,999 1,300 sq. ft. $219
2017-01-11 Single Family Mediterranean 1006 Ridgewood Drive North Myrtle Beach, SC 29582 $1,200,000 3,500 sq. ft. 15,246 sq. ft. $343
2017-01-10 Single Family Raised Beach 1639 Harbor Dr North Myrtle Beach, SC 29582 $265,000 1,700 sq. ft. $156
2017-01-10 Single Family Raised Beach 1666 Harbor Drive North Myrtle Beach, SC 29582 $259,900 2,100 sq. ft. $124
2017-01-09 Single Family Ranch 1117 Inlet View Drive North Myrtle Beach, SC 29582 $271,900 1,800 sq. ft. $151
2017-01-09 Single Family Ranch 1115 Inlet View Drive North Myrtle Beach, SC 29582 $288,900 1,900 sq. ft. $152
2017-01-09 Single Family Ranch 1127 Inlet View Drive North Myrtle Beach, SC 29582 $289,900 1,700 sq. ft. $171
2017-01-09 Single Family Ranch 1129 Inlet View Drive North Myrtle Beach, SC 29582 $247,900 1,600 sq. ft. $155
2017-01-09 Single Family Ranch 1123 Inlet View Drive North Myrtle Beach, SC 29582 $268,900 1,700 sq. ft. $158
2017-01-09 Single Family Raised Beach 406 5th Ave South North Myrtle Beach, SC 29582 $349,999 2,000 sq. ft. $175
2017-01-09 Single Family Traditional 404 8th Ave N North Myrtle Beach, SC 29582 $524,900 3,400 sq. ft. $154
2017-01-09 Single Family Raised Beach 5300 Ocean Boulevard North Myrtle Beach, SC 29582 $897,000 4,600 sq. ft. $195
2017-01-04 Single Family Raised Beach 1961 24th Ave North Myrtle Beach, SC 29582 $280,000 2,200 sq. ft. $127
2017-01-03 Single Family Raised Beach 4724 Seaview North Myrtle Beach, SC 29582 $439,000 1,900 sq. ft. $231
2017-01-02 Single Family Raised Beach 4103 Seaview North Myrtle Beach, SC 29582 $348,850 1,700 sq. ft. $205
2016-12-23 Single Family Patio Home 5003 Gilbert Lane North Myrtle Beach, SC 29582 $275,000 1,700 sq. ft. $162
2016-12-22 Single Family Traditional 2358 Tidewatch Way North Myrtle Beach, SC 29582 $334,900 2,000 sq. ft. $167
2016-12-20 Single Family Ranch 1502 Beachwalker Lane North Myrtle Beach, SC 29582 $459,810 2,500 sq. ft. $184
2016-12-20 Single Family Ranch 1504 Beachwalker Lane North Myrtle Beach, SC 29582 $464,900 2,500 sq. ft. $186
2016-12-19 Single Family Raised Beach 1509 Ocean Blvd North Myrtle Beach, SC 29582 $899,900 1,500 sq. ft. $600
2016-12-16 Single Family Traditional 800 Lorenzo Drive North Myrtle Beach, SC 29582 $319,900 2,700 sq. ft. $118
2016-12-15 Single Family Raised Beach 416 27th Avenue North Myrtle Beach, SC 29582 $465,000 4,000 sq. ft. $116
2016-12-13 Single Family Ranch 1305 Seabrook Plantation Way North Myrtle Beach, SC 29582 $464,900 2,500 sq. ft. $186
2016-12-12 Single Family Ranch 604 Windy Hill Rd North Myrtle Beach, SC 29582 $459,000 2,900 sq. ft. 33,541 sq. ft. $158
2016-12-09 Single Family Ranch 2414 Metts Drive North Myrtle Beach, SC 29582 $219,000 1,100 sq. ft. $199
2016-12-09 Single Family Split Level 2801 Nixon St North Myrtle Beach, SC 29582 $324,000 2,100 sq. ft. $154
2016-12-07 Single Family Traditional 5034 White Iris Drive North Myrtle Beach, SC 29582 $389,900 2,300 sq. ft. $170
2016-12-07 Single Family Raised Beach 605B 3rd Ave North Myrtle Beach, SC 29582 $349,900 2,000 sq. ft. $175
2016-12-05 Single Family Raised Beach 2302 Plumbridge Lane North Myrtle Beach, SC 29582 $244,900 1,800 sq. ft. $136
2016-12-03 Single Family Raised Beach 2305 Nixon St North Myrtle Beach, SC 29582 $455,900 1,500 sq. ft. $304
2016-12-02 Single Family Raised Beach 5109 Ocean Blvd Side A North Myrtle Beach, SC 29582 $799,000 3,100 sq. ft. $258
2016-12-01 Single Family Raised Beach 301 Rice Circle North Myrtle Beach, SC 29582 $274,999 1,000 sq. ft. $275
2016-12-01 Single Family Traditional 1906 Ocean Blvd North Myrtle Beach, SC 29582 $649,900 2,600 sq. ft. 6,970 sq. ft. $250
2016-11-28 Single Family Raised Beach 705 Seashell Lane North Myrtle Beach, SC 29582 $390,000 3,300 sq. ft. 7,841 sq. ft. $118
2016-11-25 Single Family Mediterranean 221 9th Ave S North Myrtle Beach, SC 29582 $519,900 3,100 sq. ft. $168
2016-11-18 Single Family Ranch 2609 Marsh Glen Drive North Myrtle Beach, SC 29582 $425,000 2,500 sq. ft. $170
2016-11-18 Single Family Traditional 803 Compass Pointe Dr North Myrtle Beach, SC 29582 $520,000 2,700 sq. ft. $193
2016-11-18 Single Family Low Country 2329 Ameron Court North Myrtle Beach, SC 29582 $220,000 1,500 sq. ft. 18,731 sq. ft. $147
2016-11-16 Single Family Ranch 5803 Spinetail Drive North Myrtle Beach, SC 29582 $249,900 1,800 sq. ft. $139
2016-11-13 Single Family Ranch 616 Belle Drive North Myrtle Beach, SC 29582 $274,500 1,800 sq. ft. $152
2016-11-10 Single Family Raised Beach 3200 Ocean Blvd North Myrtle Beach, SC 29582 $1,069,000 4,500 sq. ft. $238
2016-11-10 Single Family Raised Beach 4306 Ocean Blvd North Myrtle Beach, SC 29582 $977,999 4,100 sq. ft. $239
2016-11-09 Single Family Ranch 1812 Topsail Lane North Myrtle Beach, SC 29582 $269,900 1,600 sq. ft. $169
2016-11-09 Single Family Low Country 2302 Tortuga North Myrtle Beach, SC 29582 $399,900 3,200 sq. ft. $125
2016-11-04 Single Family 1215 Ocean Blvd North Myrtle Beach, SC 29582 $1,399,900 3,600 sq. ft. $389
2016-11-03 Single Family Contemporary 607 11th Avenue North North Myrtle Beach, SC 29582 $530,000 3,200 sq. ft. $166
2016-11-02 Single Family Patio Home 4301 Alicia Court North Myrtle Beach, SC 29582 $219,900 1,800 sq. ft. $122
2016-11-01 Single Family Patio Home 2217 Oak Creek Court North Myrtle Beach, SC 29582 $319,900 1,800 sq. ft. $178
2016-10-27 Single Family Traditional 516 12th Avenu North Myrtle Beach North Myrtle Beach, SC 29582 $599,900 2,600 sq. ft. 10,890 sq. ft. $231
2016-10-25 Single Family Double Wide 2411 Douglas St North Myrtle Beach, SC 29582 $139,999 2,600 sq. ft. $54
2016-10-24 Single Family Raised Beach 3803 Ocean Blvd North Myrtle Beach, SC 29582 $448,000 1,700 sq. ft. $264
2016-10-23 Single Family Ranch 608 Belle Drive North Myrtle Beach, SC 29582 $264,500 1,800 sq. ft. $147
2016-10-23 Single Family Traditional 500 Lorenzo Drive North Myrtle Beach, SC 29582 $279,350 2,200 sq. ft. $127
2016-10-22 Single Family Ranch 504 Lorenzo Drive North Myrtle Beach, SC 29582 $244,900 1,600 sq. ft. $153
2016-10-22 Single Family 4310 Ocean Blvd North Myrtle Beach, SC 29582 $599,998 3,500 sq. ft. $171
2016-10-21 Single Family Mediterranean 2301 Via Palma Dr North Myrtle Beach, SC 29582 $489,900 3,000 sq. ft. $163
2016-10-18 Single Family Raised Beach 704 20th Avenue South North Myrtle Beach, SC 29582 $349,900 1,800 sq. ft. $194
2016-10-14 Single Family Traditional 205 10th Ave North Myrtle Beach, SC 29582 $460,000 3,100 sq. ft. $148
2016-10-11 Single Family Raised Beach 319 54th Ave N North Myrtle Beach, SC 29582 $399,900 2,000 sq. ft. $200
2016-09-29 Single Family Low Country 4935 South Island Drive North Myrtle Beach, SC 29582 $523,000 3,600 sq. ft. 20,909 sq. ft. $145
2016-09-28 Single Family Traditional 4981 Salt Creek Court North Myrtle Beach, SC 29582 $629,900 2,300 sq. ft. $274
2016-09-22 Single Family Raised Beach 925 Ocean Blvd North Myrtle Beach, SC 29582 $799,999 2,500 sq. ft. $320
2016-09-20 Single Family Traditional 1100 Coral Sand Dr North Myrtle Beach, SC 29582 $341,000 2,600 sq. ft. $131
2016-09-14 Single Family Raised Beach 1710 Ocean Blvd North Myrtle Beach, SC 29582 $1,300,000 8,100 sq. ft. $160
2016-09-09 Single Family Contemporary 303 33rd Ave North Myrtle Beach, SC 29582 $550,000 3,400 sq. ft. $162
2016-09-08 Single Family Raised Beach 1410 Ocean Blvd North Myrtle Beach, SC 29582 $699,900 3,600 sq. ft. $194
2016-09-08 Single Family Raised Beach 1659 Harbor Drive North Myrtle Beach, SC 29582 $549,900 2,200 sq. ft. $250
2016-09-07 Single Family 502 16th Avenue North Myrtle Beach, SC 29582 $175,000 1,300 sq. ft. $135
2016-09-02 Single Family Traditional 4001 Acorn Way North Myrtle Beach, SC 29582 $305,000 1,600 sq. ft. 6,098 sq. ft. $191
2016-08-24 Single Family 1704 Perrin Drive North Myrtle Beach, SC 29582 $499,900 5,600 sq. ft. $89
2016-08-18 Single Family Ranch 5400 Little River Neck Rd North Myrtle Beach, SC 29582 $97,499 1,000 sq. ft. $98
2016-08-16 Single Family Patio Home 1901 A Holly Drive North Myrtle Beach, SC 29582 $145,000 1,500 sq. ft. $97
2016-08-12 Single Family Traditional 605 13th Avenue North Myrtle Beach, SC 29582 $395,000 2,000 sq. ft. $198
2016-08-12 Single Family Raised Beach 600 48th Ave S. #302 North Myrtle Beach, SC 29582 $569,700 2,900 sq. ft. $196
2016-08-12 Single Family Raised Beach 600 48th Ave S. #303 North Myrtle Beach, SC 29582 $569,700 2,900 sq. ft. $196
2016-08-12 Single Family Raised Beach 600 48th Ave S. #304 North Myrtle Beach, SC 29582 $569,700 2,900 sq. ft. $196
2016-08-10 Single Family Traditional 707 Sea Island Way North Myrtle Beach, SC 29582 $573,000 3,100 sq. ft. $185
2016-08-05 Single Family Raised Beach 310 57th Avenue North Myrtle Beach, SC 29582 $269,900 1,200 sq. ft. $225
2016-08-04 Single Family Raised Beach 307 43rd Avenue North Myrtle Beach, SC 29582 $319,500 1,200 sq. ft. $266
2016-07-25 Single Family Raised Beach 339 57th Avenue North Myrtle Beach, SC 29582 $575,000 2,500 sq. ft. $230
2016-07-24 Single Family Ranch 656 Lorenzo Drive North Myrtle Beach, SC 29582 $267,990 1,800 sq. ft. $149
2016-07-22 Single Family Ranch 512 Lorenzo Drive North Myrtle Beach, SC 29582 $249,900 1,600 sq. ft. $156
2016-07-18 Single Family Traditional 4828 Cantor Court North Myrtle Beach, SC 29582 $459,900 1,800 sq. ft. $256
2016-07-13 Single Family Traditional 709 Compass Point Drive North Myrtle Beach, SC 29582 $535,900 2,100 sq. ft. $255
2016-07-08 Single Family Contemporary 1110 Tarpon Road North Myrtle Beach, SC 29582 $399,900 3,800 sq. ft. $105
2016-06-28 Single Family Raised Beach 4951 Island Dr North Myrtle Beach, SC 29582 $339,900 2,000 sq. ft. $170
2016-06-21 Single Family Ranch 1010 Swan Lake Drive North Myrtle Beach, SC 29582 $275,000 1,500 sq. ft. $183
2016-06-18 Single Family Traditional 5215 Stonegate Drive North Myrtle Beach, SC 29582 $679,999 5,700 sq. ft. 20,909 sq. ft. $119
2016-06-13 Single Family Raised Beach 4600 Seaview Street North Myrtle Beach, SC 29582 $569,000 3,200 sq. ft. $178
2016-06-07 Single Family Ranch 5802 Swift Street North Myrtle Beach, SC 29582 $229,500 1,600 sq. ft. $143
2016-06-04 Single Family Raised Beach 2302 Point Marsh Lane North Myrtle Beach, SC 29582 $374,900 2,600 sq. ft. $144
2016-06-02 Single Family Traditional 1002 Summers Place North Myrtle Beach, SC 29582 $424,999 2,800 sq. ft. $152
2016-06-01 Single Family Traditional 630 Ratoon Lane North Myrtle Beach, SC 29582 $469,900 2,100 sq. ft. $224
2016-06-01 Single Family Mediterranean 904 Waterside Street North Myrtle Beach, SC 29582 $896,434 3,500 sq. ft. $256
2016-05-16 Single Family 320 47th Avenue North North Myrtle Beach, SC 29582 $339,900 2,200 sq. ft. $154
2016-05-14 Single Family Mediterranean 1337-A Waterway Drive North Myrtle Beach, SC 29582 $1,499,000 4,900 sq. ft. $306
2016-05-11 Single Family Traditional 209 16th Ave N North Myrtle Beach, SC 29582 $1,079,000 4,200 sq. ft. $257
2016-05-09 Single Family Contemporary 504S 20th Ave South North Myrtle Beach, SC 29582 $229,000 1,900 sq. ft. $121
2016-04-27 Single Family Colonial 1314 Prince William Road North Myrtle Beach, SC 29582 $998,700 5,100 sq. ft. 45,302 sq. ft. $196
2016-04-23 Single Family Traditional 2406 Magnolia Drive North Myrtle Beach, SC 29582 $349,900 3,400 sq. ft. 25,700 sq. ft. $103
2016-04-19 Single Family Raised Beach 504 Ocean Boulevard North Myrtle Beach, SC 29582 $1,100,000 3,700 sq. ft. $297
2016-04-17 Single Family 5400 Little River Neck Rd Lot #7 North Myrtle Beach, SC 29582 $59,900 1,100 sq. ft. $54
2016-04-15 Single Family Traditional 2323 Tidewatch Way North Myrtle Beach, SC 29582 $339,900 1,900 sq. ft. $179
2016-04-15 Single Family Raised Beach 2406 Ocean Blvd North Myrtle Beach, SC 29582 $989,000 2,000 sq. ft. $494
2016-04-14 Single Family Raised Beach 901 Ocean Blvd North Myrtle Beach, SC 29582 $2,150,000 6,100 sq. ft. $352
2016-04-12 Single Family Patio Home 1607C Edge Dr North Myrtle Beach, SC 29582 $174,500 1,500 sq. ft. $116
2016-04-06 Single Family Mediterranean 2128 Via Palma Drive North Myrtle Beach, SC 29582 $529,777 3,200 sq. ft. 11,326 sq. ft. $166
2016-03-21 Single Family Contemporary 2308 Bentbill Circle North Myrtle Beach, SC 29582 $598,900 3,800 sq. ft. 24,829 sq. ft. $158
2016-03-14 Single Family Patio Home 513 23rd Avenue North Myrtle Beach, SC 29582 $235,000 1,300 sq. ft. $181
2016-03-14 Single Family Low Country 4205 Gray Heron Drive North Myrtle Beach, SC 29582 $799,999 3,300 sq. ft. 21,780 sq. ft. $242
2016-02-20 Single Family 204 6th Avenue North North Myrtle Beach, SC 29582 $458,000 2,500 sq. ft. 19,602 sq. ft. $183
2015-12-04 Single Family Raised Beach 4802 South Island Court North Myrtle Beach, SC 29582 $719,000 3,500 sq. ft. 9,148 sq. ft. $205
2015-11-30 Single Family Raised Beach 4309 Lake Drive North Myrtle Beach, SC 29582 $949,990 4,800 sq. ft. $198
2015-10-30 Single Family Mediterranean 5424 Leatherleaf Drive North Myrtle Beach, SC 29582 $459,900 2,400 sq. ft. $192
2015-10-07 Single Family Traditional 810 Morrall Drive North Myrtle Beach, SC 29582 $309,900 2,500 sq. ft. $124
2015-09-20 Single Family Traditional 4566 Gray Heron Drive North Myrtle Beach, SC 29582 $649,000 3,500 sq. ft. 29,621 sq. ft. $185
2015-09-18 Single Family 5400 Little River Neck Rd North Myrtle Beach, SC 29582 $94,900 1,100 sq. ft. $86
2015-09-11 Single Family Mediterranean 181 Palmetto Harbor North Myrtle Beach, SC 29582 $779,999 4,000 sq. ft. $195
2015-07-09 Single Family Low Country 2008 Perrin Dr North Myrtle Beach, SC 29582 $499,900 1,600 sq. ft. 8,712 sq. ft. $312
2015-06-10 Single Family Raised Beach 301 52nd Avenue North North Myrtle Beach, SC 29582 $350,000 1,200 sq. ft. $292
2015-05-27 Single Family Raised Beach 1416 Ocean Boulevard North Myrtle Beach, SC 29582 $340,000 2,600 sq. ft. 5,663 sq. ft. $131
2015-05-01 Single Family Low Country 621 Olde Mill Drive North Myrtle Beach, SC 29582 $479,000 2,400 sq. ft. $200
2015-04-10 Single Family Raised Beach 6300 Ocean Blvd North Myrtle Beach, SC 29582 $1,064,500 4,800 sq. ft. $222
2015-04-10 Single Family Raised Beach 5906 Ocean Blvd North Myrtle Beach, SC 29582 $964,900 2,000 sq. ft. $482
2015-03-11 Single Family Raised Beach 4704 Lake Dr North Myrtle Beach, SC 29582 $329,500 1,500 sq. ft. $220
2015-03-02 Single Family Raised Beach 600 48th Ave S. #301 North Myrtle Beach, SC 29582 $569,000 2,900 sq. ft. $196
2015-02-11 Single Family Raised Beach 1301 Ocean Blvd North Myrtle Beach, SC 29582 $791,000 3,100 sq. ft. $255
2015-02-04 Single Family Ranch 1331 Half Moon Court North Myrtle Beach, SC 29582 $200,000 1,600 sq. ft. $125
2015-01-09 Single Family Raised Beach 4716 Harmony Lane North Myrtle Beach, SC 29582 $429,000 2,300 sq. ft. $187
2014-11-12 Single Family Raised Beach 1014 Ocean Blvd North Myrtle Beach, SC 29582 $399,000 1,500 sq. ft. $266
2014-10-22 Single Family Traditional 658 Olde Mill Dr North Myrtle Beach, SC 29582 $529,900 2,500 sq. ft. $212
2014-08-20 Single Family Ranch 603 Ocean Boulevard North Myrtle Beach, SC 29582 $625,000 1,600 sq. ft. $391
2014-06-07 Single Family Raised Beach 6208 Nixon St North Myrtle Beach, SC 29582 $449,999 2,100 sq. ft. $214
2014-06-06 Single Family 1923 Ocean Boulevard North Myrtle Beach, SC 29582 $245,900 1,900 sq. ft. $129
2014-05-06 Single Family Raised Beach 5504 Ocean Blvd North Myrtle Beach, SC 29582 $1,150,000 2,600 sq. ft. $442
2014-05-06 Single Family 1616 Ocean Blvd North Myrtle Beach, SC 29582 $375,000 1,200 sq. ft. $312
2014-05-06 Single Family Raised Beach 301 56th Avenue North North Myrtle Beach, SC 29582 $199,000 1,800 sq. ft. $111